This is the latest recevied weather packets stored in our database for station/object KG7BDA. If no packets are shown the sender has not sent any weather packets the latest 10 day(s).
| Time | Temp. | Humidity | Pressure | Rain* | Wind** | Luminosity | Snow |
|---|---|---|---|---|---|---|---|
| 1778054962 | 10.56° C | 51% | 1015.3 hPa | 0 mm | - | - | - |
| 1778054602 | 11.67° C | 49% | 1015.2 hPa | 0 mm | - | - | - |
| 1778054242 | 12.22° C | 46% | 1014.4 hPa | 0 mm | - | - | - |
| 1778053881 | 15° C | 38% | 1014.2 hPa | 0 mm | - | - | - |
| 1778053521 | 15° C | 39% | 1014 hPa | 0 mm | - | - | - |
| 1778053161 | 14.44° C | 41% | 1013.8 hPa | 0 mm | - | - | - |
| 1778052801 | 13.89° C | 43% | 1013.9 hPa | 0 mm | - | - | - |
| 1778052442 | 13.89° C | 44% | 1013.8 hPa | 0 mm | - | - | - |
| 1778052081 | 13.33° C | 45% | 1013.6 hPa | 0 mm | - | - | - |
| 1778051722 | 13.33° C | 47% | 1013.3 hPa | 0 mm | - | - | - |
| 1778051362 | 12.22° C | 50% | 1013.1 hPa | 0 mm | - | - | - |
| 1778051001 | 12.78° C | 50% | 1013 hPa | 0 mm | - | - | - |
| 1778050641 | 12.78° C | 49% | 1013 hPa | 0 mm | - | - | - |
| 1778050282 | 12.78° C | 48% | 1012.9 hPa | 0 mm | - | - | - |
| 1778049922 | 12.78° C | 49% | 1012.9 hPa | 0 mm | - | - | - |
| 1778049562 | 12.78° C | 50% | 1012.8 hPa | 0 mm | - | - | - |
| 1778049200 | 12.78° C | 49% | 1012.6 hPa | 0 mm | - | - | - |
| 1778048842 | 13.33° C | 48% | 1012.4 hPa | 0 mm | - | - | - |
| 1778048482 | 14.44° C | 45% | 1012.4 hPa | 0 mm | - | - | - |
| 1778048121 | 15.56° C | 43% | 1012.3 hPa | 0 mm | - | - | - |
| 1778047762 | 15.56° C | 42% | 1012.4 hPa | 0 mm | - | - | - |
| 1778047401 | 15.56° C | 42% | 1012.3 hPa | 0 mm | - | - | - |
| 1778047040 | 15° C | 42% | 1012.2 hPa | 0 mm | - | - | - |
| 1778046322 | 13.89° C | 44% | 1012 hPa | 0 mm | - | - | - |
| 1778045962 | 14.44° C | 43% | 1011.8 hPa | 0 mm | - | - | - |
* Rain latest hour (hover to see other rain measurements)
** Current wind speed in m/s (hover to see current wind gust speed)